sensor_id;sensor_type;location;lat;lon;timestamp;P1;durP1;ratioP1;P2;durP2;ratioP2
68765;SDS011;55756;45.582;11.484;2024-03-08T00:00:15;30.55;;;14.63;;
68765;SDS011;55756;45.582;11.484;2024-03-08T00:02:43;27.30;;;13.80;;
68765;SDS011;55756;45.582;11.484;2024-03-08T00:05:13;22.58;;;12.75;;
68765;SDS011;55756;45.582;11.484;2024-03-08T00:07:40;18.15;;;10.40;;
68765;SDS011;55756;45.582;11.484;2024-03-08T00:10:07;16.60;;;10.02;;
68765;SDS011;55756;45.582;11.484;2024-03-08T00:12:37;16.75;;;9.90;;
68765;SDS011;55756;45.582;11.484;2024-03-08T00:15:03;16.92;;;10.55;;
68765;SDS011;55756;45.582;11.484;2024-03-08T00:17:29;16.92;;;10.30;;
68765;SDS011;55756;45.582;11.484;2024-03-08T00:19:56;18.42;;;11.25;;
68765;SDS011;55756;45.582;11.484;2024-03-08T00:22:22;17.33;;;10.65;;
68765;SDS011;55756;45.582;11.484;2024-03-08T00:24:48;20.52;;;11.50;;
68765;SDS011;55756;45.582;11.484;2024-03-08T00:27:15;16.40;;;10.18;;
68765;SDS011;55756;45.582;11.484;2024-03-08T00:29:41;17.52;;;9.85;;
68765;SDS011;55756;45.582;11.484;2024-03-08T00:32:07;16.08;;;9.98;;
68765;SDS011;55756;45.582;11.484;2024-03-08T00:34:35;17.27;;;9.60;;
68765;SDS011;55756;45.582;11.484;2024-03-08T00:37:02;17.42;;;10.25;;
68765;SDS011;55756;45.582;11.484;2024-03-08T00:39:28;16.52;;;9.40;;
68765;SDS011;55756;45.582;11.484;2024-03-08T00:41:54;16.83;;;9.88;;
68765;SDS011;55756;45.582;11.484;2024-03-08T00:44:20;16.05;;;9.40;;
68765;SDS011;55756;45.582;11.484;2024-03-08T00:46:46;21.65;;;12.57;;
68765;SDS011;55756;45.582;11.484;2024-03-08T00:49:12;19.02;;;11.40;;
68765;SDS011;55756;45.582;11.484;2024-03-08T00:51:37;18.15;;;10.27;;
68765;SDS011;55756;45.582;11.484;2024-03-08T00:54:03;22.05;;;11.68;;
68765;SDS011;55756;45.582;11.484;2024-03-08T00:56:29;19.05;;;11.75;;
68765;SDS011;55756;45.582;11.484;2024-03-08T00:58:55;16.30;;;10.20;;
68765;SDS011;55756;45.582;11.484;2024-03-08T01:01:21;17.48;;;9.90;;
68765;SDS011;55756;45.582;11.484;2024-03-08T01:03:47;16.42;;;10.07;;
68765;SDS011;55756;45.582;11.484;2024-03-08T01:06:14;15.75;;;9.55;;
68765;SDS011;55756;45.582;11.484;2024-03-08T01:08:39;15.52;;;9.05;;
68765;SDS011;55756;45.582;11.484;2024-03-08T01:11:07;15.48;;;9.57;;
68765;SDS011;55756;45.582;11.484;2024-03-08T01:13:34;14.93;;;9.02;;
68765;SDS011;55756;45.582;11.484;2024-03-08T01:16:00;14.90;;;8.68;;
68765;SDS011;55756;45.582;11.484;2024-03-08T01:18:25;13.75;;;8.40;;
68765;SDS011;55756;45.582;11.484;2024-03-08T01:20:51;14.95;;;8.80;;
68765;SDS011;55756;45.582;11.484;2024-03-08T01:23:17;14.10;;;8.35;;
68765;SDS011;55756;45.582;11.484;2024-03-08T01:25:43;15.27;;;8.40;;
68765;SDS011;55756;45.582;11.484;2024-03-08T01:28:09;15.80;;;8.30;;
68765;SDS011;55756;45.582;11.484;2024-03-08T01:30:35;14.10;;;8.30;;
68765;SDS011;55756;45.582;11.484;2024-03-08T01:33:02;13.68;;;8.20;;
68765;SDS011;55756;45.582;11.484;2024-03-08T01:35:28;16.45;;;7.88;;
68765;SDS011;55756;45.582;11.484;2024-03-08T01:37:54;16.95;;;9.07;;
68765;SDS011;55756;45.582;11.484;2024-03-08T01:40:20;14.68;;;8.05;;
68765;SDS011;55756;45.582;11.484;2024-03-08T01:42:46;15.60;;;8.13;;
68765;SDS011;55756;45.582;11.484;2024-03-08T01:45:13;14.05;;;8.13;;
68765;SDS011;55756;45.582;11.484;2024-03-08T01:47:38;15.25;;;8.00;;
68765;SDS011;55756;45.582;11.484;2024-03-08T01:50:05;13.70;;;8.15;;
68765;SDS011;55756;45.582;11.484;2024-03-08T01:52:34;14.02;;;8.05;;
68765;SDS011;55756;45.582;11.484;2024-03-08T01:55:01;14.05;;;8.30;;
68765;SDS011;55756;45.582;11.484;2024-03-08T01:57:29;14.45;;;8.88;;
68765;SDS011;55756;45.582;11.484;2024-03-08T01:59:56;13.75;;;7.95;;
68765;SDS011;55756;45.582;11.484;2024-03-08T02:02:22;13.98;;;7.93;;
68765;SDS011;55756;45.582;11.484;2024-03-08T02:04:48;12.50;;;7.53;;
68765;SDS011;55756;45.582;11.484;2024-03-08T02:07:17;12.57;;;7.82;;
68765;SDS011;55756;45.582;11.484;2024-03-08T02:09:43;13.57;;;7.95;;
68765;SDS011;55756;45.582;11.484;2024-03-08T02:12:09;12.95;;;7.07;;
68765;SDS011;55756;45.582;11.484;2024-03-08T02:14:38;12.73;;;7.03;;
68765;SDS011;55756;45.582;11.484;2024-03-08T02:17:05;12.07;;;6.78;;
68765;SDS011;55756;45.582;11.484;2024-03-08T02:19:31;11.75;;;6.88;;
68765;SDS011;55756;45.582;11.484;2024-03-08T02:21:58;12.65;;;6.93;;
68765;SDS011;55756;45.582;11.484;2024-03-08T02:24:24;13.60;;;6.78;;
68765;SDS011;55756;45.582;11.484;2024-03-08T02:26:50;13.00;;;7.10;;
68765;SDS011;55756;45.582;11.484;2024-03-08T02:29:16;13.02;;;7.20;;
68765;SDS011;55756;45.582;11.484;2024-03-08T02:31:42;13.50;;;6.85;;
68765;SDS011;55756;45.582;11.484;2024-03-08T02:34:08;12.48;;;7.20;;
68765;SDS011;55756;45.582;11.484;2024-03-08T02:36:34;13.00;;;7.28;;
68765;SDS011;55756;45.582;11.484;2024-03-08T02:39:03;12.73;;;7.50;;
68765;SDS011;55756;45.582;11.484;2024-03-08T02:41:30;11.77;;;7.35;;
68765;SDS011;55756;45.582;11.484;2024-03-08T02:43:56;11.85;;;7.00;;
68765;SDS011;55756;45.582;11.484;2024-03-08T02:46:21;12.65;;;6.97;;
68765;SDS011;55756;45.582;11.484;2024-03-08T02:48:47;14.68;;;7.38;;
68765;SDS011;55756;45.582;11.484;2024-03-08T02:51:13;13.00;;;6.78;;
68765;SDS011;55756;45.582;11.484;2024-03-08T02:53:41;12.98;;;6.88;;
68765;SDS011;55756;45.582;11.484;2024-03-08T02:56:08;13.98;;;6.70;;
68765;SDS011;55756;45.582;11.484;2024-03-08T02:58:38;11.50;;;6.55;;
68765;SDS011;55756;45.582;11.484;2024-03-08T03:01:03;12.60;;;7.20;;
68765;SDS011;55756;45.582;11.484;2024-03-08T03:03:29;13.63;;;6.60;;
68765;SDS011;55756;45.582;11.484;2024-03-08T03:05:55;11.65;;;6.78;;
68765;SDS011;55756;45.582;11.484;2024-03-08T03:08:21;11.73;;;6.68;;
68765;SDS011;55756;45.582;11.484;2024-03-08T03:10:47;13.13;;;6.30;;
68765;SDS011;55756;45.582;11.484;2024-03-08T03:13:13;10.73;;;6.10;;
68765;SDS011;55756;45.582;11.484;2024-03-08T03:15:39;11.50;;;6.40;;
68765;SDS011;55756;45.582;11.484;2024-03-08T03:20:33;11.32;;;6.05;;
68765;SDS011;55756;45.582;11.484;2024-03-08T03:23:05;10.88;;;5.95;;
68765;SDS011;55756;45.582;11.484;2024-03-08T03:25:33;13.68;;;5.75;;
68765;SDS011;55756;45.582;11.484;2024-03-08T03:28:00;11.07;;;5.85;;
68765;SDS011;55756;45.582;11.484;2024-03-08T03:30:27;10.55;;;6.05;;
68765;SDS011;55756;45.582;11.484;2024-03-08T03:32:56;11.30;;;5.82;;
68765;SDS011;55756;45.582;11.484;2024-03-08T03:35:25;11.48;;;6.30;;
68765;SDS011;55756;45.582;11.484;2024-03-08T03:37:52;10.25;;;5.68;;
68765;SDS011;55756;45.582;11.484;2024-03-08T03:40:31;12.07;;;6.30;;
68765;SDS011;55756;45.582;11.484;2024-03-08T03:42:57;10.15;;;5.80;;
68765;SDS011;55756;45.582;11.484;2024-03-08T03:45:23;11.45;;;6.10;;
68765;SDS011;55756;45.582;11.484;2024-03-08T03:47:49;11.73;;;5.95;;
68765;SDS011;55756;45.582;11.484;2024-03-08T03:50:15;10.18;;;5.88;;
68765;SDS011;55756;45.582;11.484;2024-03-08T03:52:41;11.63;;;5.72;;
68765;SDS011;55756;45.582;11.484;2024-03-08T03:55:07;13.05;;;5.93;;
68765;SDS011;55756;45.582;11.484;2024-03-08T03:57:33;11.68;;;5.78;;
68765;SDS011;55756;45.582;11.484;2024-03-08T03:59:59;12.93;;;5.88;;
68765;SDS011;55756;45.582;11.484;2024-03-08T04:02:25;11.70;;;5.90;;
68765;SDS011;55756;45.582;11.484;2024-03-08T04:04:54;11.13;;;5.90;;
68765;SDS011;55756;45.582;11.484;2024-03-08T04:07:20;10.95;;;5.95;;
68765;SDS011;55756;45.582;11.484;2024-03-08T04:09:46;12.57;;;6.15;;
68765;SDS011;55756;45.582;11.484;2024-03-08T04:12:12;9.15;;;5.35;;
68765;SDS011;55756;45.582;11.484;2024-03-08T04:14:41;10.40;;;5.25;;
68765;SDS011;55756;45.582;11.484;2024-03-08T04:17:07;9.43;;;5.38;;
68765;SDS011;55756;45.582;11.484;2024-03-08T04:19:34;9.50;;;5.20;;
68765;SDS011;55756;45.582;11.484;2024-03-08T04:22:00;9.02;;;4.90;;
68765;SDS011;55756;45.582;11.484;2024-03-08T04:24:27;9.65;;;4.90;;
68765;SDS011;55756;45.582;11.484;2024-03-08T04:26:53;9.40;;;4.90;;
68765;SDS011;55756;45.582;11.484;2024-03-08T04:29:19;9.38;;;4.72;;
68765;SDS011;55756;45.582;11.484;2024-03-08T04:31:47;9.60;;;5.20;;
68765;SDS011;55756;45.582;11.484;2024-03-08T04:34:12;9.60;;;5.10;;
68765;SDS011;55756;45.582;11.484;2024-03-08T04:36:38;9.85;;;4.97;;
68765;SDS011;55756;45.582;11.484;2024-03-08T04:39:04;9.40;;;4.80;;
68765;SDS011;55756;45.582;11.484;2024-03-08T04:41:30;14.82;;;5.05;;
68765;SDS011;55756;45.582;11.484;2024-03-08T04:43:56;8.70;;;4.72;;
68765;SDS011;55756;45.582;11.484;2024-03-08T04:46:23;10.07;;;4.90;;
68765;SDS011;55756;45.582;11.484;2024-03-08T04:48:49;10.00;;;4.95;;
68765;SDS011;55756;45.582;11.484;2024-03-08T04:51:16;13.25;;;5.78;;
68765;SDS011;55756;45.582;11.484;2024-03-08T04:53:42;10.75;;;4.53;;
68765;SDS011;55756;45.582;11.484;2024-03-08T04:56:07;8.88;;;4.72;;
68765;SDS011;55756;45.582;11.484;2024-03-08T04:58:35;9.25;;;4.75;;
68765;SDS011;55756;45.582;11.484;2024-03-08T05:01:01;8.88;;;4.80;;
68765;SDS011;55756;45.582;11.484;2024-03-08T05:03:27;9.65;;;4.70;;
68765;SDS011;55756;45.582;11.484;2024-03-08T05:05:53;8.70;;;4.47;;
68765;SDS011;55756;45.582;11.484;2024-03-08T05:08:19;9.10;;;4.90;;
68765;SDS011;55756;45.582;11.484;2024-03-08T05:10:45;8.40;;;4.60;;
68765;SDS011;55756;45.582;11.484;2024-03-08T05:13:11;8.85;;;4.85;;
68765;SDS011;55756;45.582;11.484;2024-03-08T05:15:38;8.35;;;4.43;;
68765;SDS011;55756;45.582;11.484;2024-03-08T05:18:04;8.23;;;4.18;;
68765;SDS011;55756;45.582;11.484;2024-03-08T05:20:30;8.63;;;4.07;;
68765;SDS011;55756;45.582;11.484;2024-03-08T05:22:56;7.25;;;3.80;;
68765;SDS011;55756;45.582;11.484;2024-03-08T05:25:25;7.20;;;3.70;;
68765;SDS011;55756;45.582;11.484;2024-03-08T05:27:51;8.25;;;4.13;;
68765;SDS011;55756;45.582;11.484;2024-03-08T05:30:17;7.25;;;3.67;;
68765;SDS011;55756;45.582;11.484;2024-03-08T05:32:43;8.23;;;4.18;;
68765;SDS011;55756;45.582;11.484;2024-03-08T05:37:38;7.53;;;3.70;;
68765;SDS011;55756;45.582;11.484;2024-03-08T05:40:05;9.40;;;3.90;;
68765;SDS011;55756;45.582;11.484;2024-03-08T05:42:37;12.23;;;4.38;;
68765;SDS011;55756;45.582;11.484;2024-03-08T05:45:03;8.23;;;3.58;;
68765;SDS011;55756;45.582;11.484;2024-03-08T05:47:31;7.70;;;3.80;;
68765;SDS011;55756;45.582;11.484;2024-03-08T05:49:58;7.90;;;3.90;;
68765;SDS011;55756;45.582;11.484;2024-03-08T05:52:24;7.40;;;3.90;;
68765;SDS011;55756;45.582;11.484;2024-03-08T05:54:51;8.00;;;4.18;;
68765;SDS011;55756;45.582;11.484;2024-03-08T05:57:17;9.70;;;4.50;;
68765;SDS011;55756;45.582;11.484;2024-03-08T05:59:43;9.15;;;4.32;;
68765;SDS011;55756;45.582;11.484;2024-03-08T06:02:08;7.47;;;3.63;;
68765;SDS011;55756;45.582;11.484;2024-03-08T06:04:34;7.95;;;4.25;;
68765;SDS011;55756;45.582;11.484;2024-03-08T06:07:00;9.68;;;4.30;;
68765;SDS011;55756;45.582;11.484;2024-03-08T06:09:28;9.20;;;4.00;;
68765;SDS011;55756;45.582;11.484;2024-03-08T06:11:54;8.30;;;4.10;;
68765;SDS011;55756;45.582;11.484;2024-03-08T06:14:20;9.27;;;4.35;;
68765;SDS011;55756;45.582;11.484;2024-03-08T06:16:46;10.65;;;4.05;;
68765;SDS011;55756;45.582;11.484;2024-03-08T06:19:12;7.72;;;4.18;;
68765;SDS011;55756;45.582;11.484;2024-03-08T06:21:38;8.32;;;4.57;;
68765;SDS011;55756;45.582;11.484;2024-03-08T06:24:04;7.85;;;4.20;;
68765;SDS011;55756;45.582;11.484;2024-03-08T06:26:30;10.88;;;4.60;;
68765;SDS011;55756;45.582;11.484;2024-03-08T06:28:56;9.50;;;5.00;;
68765;SDS011;55756;45.582;11.484;2024-03-08T06:31:22;8.18;;;4.38;;
68765;SDS011;55756;45.582;11.484;2024-03-08T06:33:48;8.68;;;4.63;;
68765;SDS011;55756;45.582;11.484;2024-03-08T06:36:18;9.60;;;5.20;;
68765;SDS011;55756;45.582;11.484;2024-03-08T06:38:49;9.85;;;5.20;;
68765;SDS011;55756;45.582;11.484;2024-03-08T06:41:15;9.68;;;5.00;;
68765;SDS011;55756;45.582;11.484;2024-03-08T06:43:44;9.75;;;5.20;;
68765;SDS011;55756;45.582;11.484;2024-03-08T06:46:11;10.27;;;5.40;;
68765;SDS011;55756;45.582;11.484;2024-03-08T06:48:41;11.32;;;5.80;;
68765;SDS011;55756;45.582;11.484;2024-03-08T06:51:06;9.35;;;5.10;;
68765;SDS011;55756;45.582;11.484;2024-03-08T06:53:32;10.13;;;5.00;;
68765;SDS011;55756;45.582;11.484;2024-03-08T06:56:00;9.70;;;5.30;;
68765;SDS011;55756;45.582;11.484;2024-03-08T06:58:27;10.73;;;5.60;;
68765;SDS011;55756;45.582;11.484;2024-03-08T07:00:53;9.55;;;5.03;;
68765;SDS011;55756;45.582;11.484;2024-03-08T07:03:19;11.32;;;5.43;;
68765;SDS011;55756;45.582;11.484;2024-03-08T07:05:47;10.48;;;6.22;;
68765;SDS011;55756;45.582;11.484;2024-03-08T07:08:13;9.23;;;5.07;;
68765;SDS011;55756;45.582;11.484;2024-03-08T07:10:39;11.48;;;6.70;;
68765;SDS011;55756;45.582;11.484;2024-03-08T07:13:07;10.00;;;5.40;;
68765;SDS011;55756;45.582;11.484;2024-03-08T07:15:33;10.05;;;5.30;;
68765;SDS011;55756;45.582;11.484;2024-03-08T07:17:59;8.70;;;4.72;;
68765;SDS011;55756;45.582;11.484;2024-03-08T07:20:27;10.32;;;4.88;;
68765;SDS011;55756;45.582;11.484;2024-03-08T07:22:53;7.85;;;4.57;;
68765;SDS011;55756;45.582;11.484;2024-03-08T07:25:19;9.20;;;5.05;;
68765;SDS011;55756;45.582;11.484;2024-03-08T07:27:52;8.88;;;4.82;;
68765;SDS011;55756;45.582;11.484;2024-03-08T07:30:20;9.75;;;5.15;;
68765;SDS011;55756;45.582;11.484;2024-03-08T07:33:05;9.23;;;5.28;;
68765;SDS011;55756;45.582;11.484;2024-03-08T07:35:32;11.00;;;5.40;;
68765;SDS011;55756;45.582;11.484;2024-03-08T07:38:02;9.15;;;4.88;;
68765;SDS011;55756;45.582;11.484;2024-03-08T07:40:31;11.63;;;5.38;;
68765;SDS011;55756;45.582;11.484;2024-03-08T07:43:00;10.68;;;5.40;;
68765;SDS011;55756;45.582;11.484;2024-03-08T07:45:26;11.15;;;5.55;;
68765;SDS011;55756;45.582;11.484;2024-03-08T07:47:51;9.75;;;5.47;;
68765;SDS011;55756;45.582;11.484;2024-03-08T07:50:18;14.25;;;7.82;;
68765;SDS011;55756;45.582;11.484;2024-03-08T07:52:44;10.70;;;5.72;;
68765;SDS011;55756;45.582;11.484;2024-03-08T07:55:10;9.68;;;5.15;;
68765;SDS011;55756;45.582;11.484;2024-03-08T07:57:36;9.50;;;5.32;;
68765;SDS011;55756;45.582;11.484;2024-03-08T08:00:05;10.10;;;5.45;;
68765;SDS011;55756;45.582;11.484;2024-03-08T08:02:34;9.50;;;5.00;;
68765;SDS011;55756;45.582;11.484;2024-03-08T08:05:00;10.02;;;4.97;;
68765;SDS011;55756;45.582;11.484;2024-03-08T08:07:26;8.77;;;4.90;;
68765;SDS011;55756;45.582;11.484;2024-03-08T08:09:53;9.07;;;4.90;;
68765;SDS011;55756;45.582;11.484;2024-03-08T08:12:18;8.95;;;5.28;;
68765;SDS011;55756;45.582;11.484;2024-03-08T08:14:44;10.38;;;5.03;;
68765;SDS011;55756;45.582;11.484;2024-03-08T08:17:11;13.45;;;4.95;;
68765;SDS011;55756;45.582;11.484;2024-03-08T08:19:37;10.35;;;5.10;;
68765;SDS011;55756;45.582;11.484;2024-03-08T08:22:05;9.88;;;5.13;;
68765;SDS011;55756;45.582;11.484;2024-03-08T08:24:34;8.27;;;4.80;;
68765;SDS011;55756;45.582;11.484;2024-03-08T08:27:01;9.50;;;5.10;;
68765;SDS011;55756;45.582;11.484;2024-03-08T08:29:28;8.85;;;4.80;;
68765;SDS011;55756;45.582;11.484;2024-03-08T08:31:53;8.60;;;4.72;;
68765;SDS011;55756;45.582;11.484;2024-03-08T08:34:19;11.43;;;4.80;;
68765;SDS011;55756;45.582;11.484;2024-03-08T08:36:49;9.38;;;4.90;;
68765;SDS011;55756;45.582;11.484;2024-03-08T08:39:14;9.07;;;4.50;;
68765;SDS011;55756;45.582;11.484;2024-03-08T08:41:42;8.27;;;4.60;;
68765;SDS011;55756;45.582;11.484;2024-03-08T08:44:08;8.95;;;4.60;;
68765;SDS011;55756;45.582;11.484;2024-03-08T08:46:37;10.20;;;4.60;;
68765;SDS011;55756;45.582;11.484;2024-03-08T08:49:04;8.60;;;4.68;;
68765;SDS011;55756;45.582;11.484;2024-03-08T08:51:31;9.77;;;4.65;;
68765;SDS011;55756;45.582;11.484;2024-03-08T08:53:59;10.40;;;4.85;;
68765;SDS011;55756;45.582;11.484;2024-03-08T08:56:24;8.80;;;4.57;;
68765;SDS011;55756;45.582;11.484;2024-03-08T08:58:51;8.40;;;4.63;;
68765;SDS011;55756;45.582;11.484;2024-03-08T09:01:18;9.52;;;4.97;;
68765;SDS011;55756;45.582;11.484;2024-03-08T09:03:45;9.25;;;4.82;;
68765;SDS011;55756;45.582;11.484;2024-03-08T09:06:15;10.27;;;4.65;;
68765;SDS011;55756;45.582;11.484;2024-03-08T09:08:44;9.32;;;4.75;;
68765;SDS011;55756;45.582;11.484;2024-03-08T09:11:11;10.80;;;4.80;;
68765;SDS011;55756;45.582;11.484;2024-03-08T09:13:36;10.50;;;5.10;;
68765;SDS011;55756;45.582;11.484;2024-03-08T09:16:03;9.38;;;4.80;;
68765;SDS011;55756;45.582;11.484;2024-03-08T09:18:30;9.35;;;4.82;;
68765;SDS011;55756;45.582;11.484;2024-03-08T09:20:57;10.23;;;5.20;;
68765;SDS011;55756;45.582;11.484;2024-03-08T09:23:24;9.50;;;5.00;;
68765;SDS011;55756;45.582;11.484;2024-03-08T09:25:51;10.68;;;5.30;;
68765;SDS011;55756;45.582;11.484;2024-03-08T09:28:17;10.27;;;4.70;;
68765;SDS011;55756;45.582;11.484;2024-03-08T09:30:43;9.82;;;4.97;;
68765;SDS011;55756;45.582;11.484;2024-03-08T09:33:09;7.97;;;4.43;;
68765;SDS011;55756;45.582;11.484;2024-03-08T09:35:36;8.63;;;4.80;;
68765;SDS011;55756;45.582;11.484;2024-03-08T09:38:02;8.30;;;4.38;;
68765;SDS011;55756;45.582;11.484;2024-03-08T09:40:29;8.65;;;4.85;;
68765;SDS011;55756;45.582;11.484;2024-03-08T09:42:55;8.57;;;4.30;;
68765;SDS011;55756;45.582;11.484;2024-03-08T09:45:22;8.65;;;4.65;;
68765;SDS011;55756;45.582;11.484;2024-03-08T09:47:50;8.25;;;4.28;;
68765;SDS011;55756;45.582;11.484;2024-03-08T09:50:16;8.40;;;4.40;;
68765;SDS011;55756;45.582;11.484;2024-03-08T09:52:43;8.73;;;4.82;;
68765;SDS011;55756;45.582;11.484;2024-03-08T09:55:11;10.07;;;4.80;;
68765;SDS011;55756;45.582;11.484;2024-03-08T09:57:37;9.88;;;5.30;;
68765;SDS011;55756;45.582;11.484;2024-03-08T10:00:04;11.27;;;6.35;;
68765;SDS011;55756;45.582;11.484;2024-03-08T10:02:46;10.07;;;5.47;;
68765;SDS011;55756;45.582;11.484;2024-03-08T10:05:13;12.68;;;7.03;;
68765;SDS011;55756;45.582;11.484;2024-03-08T10:07:39;9.20;;;5.15;;
68765;SDS011;55756;45.582;11.484;2024-03-08T10:10:05;9.65;;;5.50;;
68765;SDS011;55756;45.582;11.484;2024-03-08T10:12:34;12.75;;;5.72;;
68765;SDS011;55756;45.582;11.484;2024-03-08T10:15:00;11.10;;;6.38;;
68765;SDS011;55756;45.582;11.484;2024-03-08T10:17:26;10.50;;;5.45;;
68765;SDS011;55756;45.582;11.484;2024-03-08T10:19:57;12.73;;;6.78;;
68765;SDS011;55756;45.582;11.484;2024-03-08T10:22:25;12.70;;;6.70;;
68765;SDS011;55756;45.582;11.484;2024-03-08T10:24:51;14.15;;;5.80;;
68765;SDS011;55756;45.582;11.484;2024-03-08T10:27:17;11.48;;;5.93;;
68765;SDS011;55756;45.582;11.484;2024-03-08T10:29:46;11.52;;;6.50;;
68765;SDS011;55756;45.582;11.484;2024-03-08T10:32:16;12.88;;;6.78;;
68765;SDS011;55756;45.582;11.484;2024-03-08T10:34:42;10.90;;;6.22;;
68765;SDS011;55756;45.582;11.484;2024-03-08T10:37:12;11.82;;;6.30;;
68765;SDS011;55756;45.582;11.484;2024-03-08T10:39:43;11.57;;;5.88;;
68765;SDS011;55756;45.582;11.484;2024-03-08T10:42:17;11.23;;;5.40;;
68765;SDS011;55756;45.582;11.484;2024-03-08T10:44:53;9.95;;;5.40;;
68765;SDS011;55756;45.582;11.484;2024-03-08T10:47:39;10.97;;;6.10;;
68765;SDS011;55756;45.582;11.484;2024-03-08T10:50:10;13.07;;;7.50;;
68765;SDS011;55756;45.582;11.484;2024-03-08T10:52:41;14.20;;;6.60;;
68765;SDS011;55756;45.582;11.484;2024-03-08T10:55:08;12.23;;;6.00;;
68765;SDS011;55756;45.582;11.484;2024-03-08T10:57:38;13.15;;;5.95;;
68765;SDS011;55756;45.582;11.484;2024-03-08T11:00:05;12.65;;;5.93;;
68765;SDS011;55756;45.582;11.484;2024-03-08T11:02:35;12.25;;;6.13;;
68765;SDS011;55756;45.582;11.484;2024-03-08T11:05:02;10.55;;;5.97;;
68765;SDS011;55756;45.582;11.484;2024-03-08T11:07:33;10.85;;;5.55;;
68765;SDS011;55756;45.582;11.484;2024-03-08T11:10:03;11.40;;;6.25;;
68765;SDS011;55756;45.582;11.484;2024-03-08T11:12:35;12.32;;;6.22;;
68765;SDS011;55756;45.582;11.484;2024-03-08T11:15:03;10.75;;;6.45;;
68765;SDS011;55756;45.582;11.484;2024-03-08T11:20:11;12.40;;;6.15;;
68765;SDS011;55756;45.582;11.484;2024-03-08T11:22:52;10.52;;;6.30;;
68765;SDS011;55756;45.582;11.484;2024-03-08T11:25:35;12.43;;;6.50;;
68765;SDS011;55756;45.582;11.484;2024-03-08T11:28:07;12.95;;;6.50;;
68765;SDS011;55756;45.582;11.484;2024-03-08T11:33:24;11.02;;;6.38;;
68765;SDS011;55756;45.582;11.484;2024-03-08T11:38:50;11.50;;;7.03;;
68765;SDS011;55756;45.582;11.484;2024-03-08T11:41:18;13.63;;;7.30;;
68765;SDS011;55756;45.582;11.484;2024-03-08T11:43:45;10.80;;;6.70;;
68765;SDS011;55756;45.582;11.484;2024-03-08T11:46:12;12.02;;;7.32;;
68765;SDS011;55756;45.582;11.484;2024-03-08T11:48:39;13.32;;;7.28;;
68765;SDS011;55756;45.582;11.484;2024-03-08T11:51:09;13.75;;;7.70;;
68765;SDS011;55756;45.582;11.484;2024-03-08T11:53:37;14.10;;;7.10;;
68765;SDS011;55756;45.582;11.484;2024-03-08T11:56:07;13.15;;;7.30;;
68765;SDS011;55756;45.582;11.484;2024-03-08T11:58:40;13.73;;;7.40;;
68765;SDS011;55756;45.582;11.484;2024-03-08T12:01:10;12.75;;;7.50;;
68765;SDS011;55756;45.582;11.484;2024-03-08T12:03:38;12.25;;;7.45;;
68765;SDS011;55756;45.582;11.484;2024-03-08T12:06:06;13.13;;;7.70;;
68765;SDS011;55756;45.582;11.484;2024-03-08T12:08:35;13.73;;;8.05;;
68765;SDS011;55756;45.582;11.484;2024-03-08T12:11:01;14.40;;;8.23;;
68765;SDS011;55756;45.582;11.484;2024-03-08T12:13:32;12.38;;;7.53;;
68765;SDS011;55756;45.582;11.484;2024-03-08T12:15:59;14.40;;;8.25;;
68765;SDS011;55756;45.582;11.484;2024-03-08T12:18:26;13.30;;;7.90;;
68765;SDS011;55756;45.582;11.484;2024-03-08T12:21:08;14.07;;;8.07;;
68765;SDS011;55756;45.582;11.484;2024-03-08T12:23:47;16.17;;;8.23;;
68765;SDS011;55756;45.582;11.484;2024-03-08T12:26:17;16.27;;;8.35;;
68765;SDS011;55756;45.582;11.484;2024-03-08T12:28:49;14.57;;;8.57;;
68765;SDS011;55756;45.582;11.484;2024-03-08T12:31:18;13.65;;;8.80;;
68765;SDS011;55756;45.582;11.484;2024-03-08T12:33:53;15.82;;;8.60;;
68765;SDS011;55756;45.582;11.484;2024-03-08T12:36:21;15.10;;;9.05;;
68765;SDS011;55756;45.582;11.484;2024-03-08T12:38:47;16.90;;;8.80;;
68765;SDS011;55756;45.582;11.484;2024-03-08T12:41:14;14.32;;;8.88;;
68765;SDS011;55756;45.582;11.484;2024-03-08T12:43:40;15.98;;;8.98;;
68765;SDS011;55756;45.582;11.484;2024-03-08T12:46:06;15.60;;;9.27;;
68765;SDS011;55756;45.582;11.484;2024-03-08T12:48:37;14.90;;;8.77;;
68765;SDS011;55756;45.582;11.484;2024-03-08T12:53:34;15.82;;;9.15;;
68765;SDS011;55756;45.582;11.484;2024-03-08T12:56:00;14.15;;;8.75;;
68765;SDS011;55756;45.582;11.484;2024-03-08T12:58:26;14.40;;;8.50;;
68765;SDS011;55756;45.582;11.484;2024-03-08T13:00:52;15.05;;;9.18;;
68765;SDS011;55756;45.582;11.484;2024-03-08T13:03:17;14.27;;;8.88;;
68765;SDS011;55756;45.582;11.484;2024-03-08T13:05:43;13.23;;;8.65;;
68765;SDS011;55756;45.582;11.484;2024-03-08T13:08:09;15.80;;;9.02;;
68765;SDS011;55756;45.582;11.484;2024-03-08T13:13:04;17.48;;;9.43;;
68765;SDS011;55756;45.582;11.484;2024-03-08T13:15:30;15.75;;;9.32;;
68765;SDS011;55756;45.582;11.484;2024-03-08T13:17:56;15.35;;;8.52;;
68765;SDS011;55756;45.582;11.484;2024-03-08T13:20:25;15.32;;;8.70;;
68765;SDS011;55756;45.582;11.484;2024-03-08T13:22:53;13.98;;;8.73;;
68765;SDS011;55756;45.582;11.484;2024-03-08T13:25:19;14.60;;;8.90;;
68765;SDS011;55756;45.582;11.484;2024-03-08T13:27:45;15.80;;;9.20;;
68765;SDS011;55756;45.582;11.484;2024-03-08T13:30:12;14.98;;;9.23;;
68765;SDS011;55756;45.582;11.484;2024-03-08T13:32:42;17.30;;;10.20;;
68765;SDS011;55756;45.582;11.484;2024-03-08T13:35:11;14.90;;;8.98;;
68765;SDS011;55756;45.582;11.484;2024-03-08T13:37:41;15.43;;;8.93;;
68765;SDS011;55756;45.582;11.484;2024-03-08T13:40:08;16.02;;;9.48;;
68765;SDS011;55756;45.582;11.484;2024-03-08T13:42:42;15.93;;;10.32;;
68765;SDS011;55756;45.582;11.484;2024-03-08T13:45:10;15.75;;;10.15;;
68765;SDS011;55756;45.582;11.484;2024-03-08T13:50:02;13.43;;;8.57;;
68765;SDS011;55756;45.582;11.484;2024-03-08T13:52:29;15.70;;;8.70;;
68765;SDS011;55756;45.582;11.484;2024-03-08T13:54:55;13.73;;;8.38;;
68765;SDS011;55756;45.582;11.484;2024-03-08T13:57:21;12.98;;;8.32;;
68765;SDS011;55756;45.582;11.484;2024-03-08T13:59:47;15.18;;;9.10;;
68765;SDS011;55756;45.582;11.484;2024-03-08T14:02:16;16.92;;;9.52;;
68765;SDS011;55756;45.582;11.484;2024-03-08T14:04:42;14.40;;;8.70;;
68765;SDS011;55756;45.582;11.484;2024-03-08T14:07:08;14.32;;;8.85;;
68765;SDS011;55756;45.582;11.484;2024-03-08T14:09:36;12.63;;;8.15;;
68765;SDS011;55756;45.582;11.484;2024-03-08T14:12:08;15.13;;;8.32;;
68765;SDS011;55756;45.582;11.484;2024-03-08T14:14:34;13.85;;;8.63;;
68765;SDS011;55756;45.582;11.484;2024-03-08T14:17:03;14.35;;;8.80;;
68765;SDS011;55756;45.582;11.484;2024-03-08T14:19:29;14.18;;;8.70;;
68765;SDS011;55756;45.582;11.484;2024-03-08T14:22:01;15.32;;;9.13;;
68765;SDS011;55756;45.582;11.484;2024-03-08T14:24:32;13.60;;;8.93;;
68765;SDS011;55756;45.582;11.484;2024-03-08T14:27:01;13.57;;;8.68;;
68765;SDS011;55756;45.582;11.484;2024-03-08T14:29:28;15.20;;;8.70;;
68765;SDS011;55756;45.582;11.484;2024-03-08T14:31:58;14.77;;;9.00;;
68765;SDS011;55756;45.582;11.484;2024-03-08T14:34:27;15.60;;;8.80;;
68765;SDS011;55756;45.582;11.484;2024-03-08T14:36:54;14.48;;;8.70;;
68765;SDS011;55756;45.582;11.484;2024-03-08T14:39:21;14.00;;;8.60;;
68765;SDS011;55756;45.582;11.484;2024-03-08T14:41:52;15.50;;;9.05;;
68765;SDS011;55756;45.582;11.484;2024-03-08T14:44:23;13.90;;;9.20;;